sensor_id;sensor_type;location;lat;lon;timestamp;temperature;humidity
5130;DHT22;2583;50.946;6.954;2023-02-28T00:00:37;2.20;1.00
5130;DHT22;2583;50.946;6.954;2023-02-28T00:03:04;2.10;1.00
5130;DHT22;2583;50.946;6.954;2023-02-28T00:05:31;2.10;1.00
5130;DHT22;2583;50.946;6.954;2023-02-28T00:07:58;2.10;1.00
5130;DHT22;2583;50.946;6.954;2023-02-28T00:10:28;2.10;1.00
5130;DHT22;2583;50.946;6.954;2023-02-28T00:12:58;2.10;1.00
5130;DHT22;2583;50.946;6.954;2023-02-28T00:15:25;2.00;1.00
5130;DHT22;2583;50.946;6.954;2023-02-28T00:17:52;2.00;1.00
5130;DHT22;2583;50.946;6.954;2023-02-28T00:20:19;2.00;1.00
5130;DHT22;2583;50.946;6.954;2023-02-28T00:22:48;2.00;1.00
5130;DHT22;2583;50.946;6.954;2023-02-28T00:25:18;2.00;1.00
5130;DHT22;2583;50.946;6.954;2023-02-28T00:27:46;2.00;1.00
5130;DHT22;2583;50.946;6.954;2023-02-28T00:30:15;2.00;1.00
5130;DHT22;2583;50.946;6.954;2023-02-28T00:32:43;2.00;1.00
5130;DHT22;2583;50.946;6.954;2023-02-28T00:35:12;2.00;1.00
5130;DHT22;2583;50.946;6.954;2023-02-28T00:37:39;1.90;1.00
5130;DHT22;2583;50.946;6.954;2023-02-28T00:40:07;1.90;1.00
5130;DHT22;2583;50.946;6.954;2023-02-28T00:42:34;1.90;1.00
5130;DHT22;2583;50.946;6.954;2023-02-28T00:45:02;1.90;1.00
5130;DHT22;2583;50.946;6.954;2023-02-28T00:47:32;1.80;1.00
5130;DHT22;2583;50.946;6.954;2023-02-28T00:50:00;1.80;1.00
5130;DHT22;2583;50.946;6.954;2023-02-28T00:52:27;1.80;1.00
5130;DHT22;2583;50.946;6.954;2023-02-28T00:54:54;1.80;1.00
5130;DHT22;2583;50.946;6.954;2023-02-28T00:57:20;1.80;1.00
5130;DHT22;2583;50.946;6.954;2023-02-28T00:59:47;1.80;1.00
5130;DHT22;2583;50.946;6.954;2023-02-28T01:02:14;1.80;1.00
5130;DHT22;2583;50.946;6.954;2023-02-28T01:04:41;1.70;1.00
5130;DHT22;2583;50.946;6.954;2023-02-28T01:07:08;1.70;1.00
5130;DHT22;2583;50.946;6.954;2023-02-28T01:09:35;1.70;1.00
5130;DHT22;2583;50.946;6.954;2023-02-28T01:12:01;1.80;1.00
5130;DHT22;2583;50.946;6.954;2023-02-28T01:14:28;1.80;1.00
5130;DHT22;2583;50.946;6.954;2023-02-28T01:16:55;1.80;1.00
5130;DHT22;2583;50.946;6.954;2023-02-28T01:19:22;1.80;1.00
5130;DHT22;2583;50.946;6.954;2023-02-28T01:21:48;1.80;1.00
5130;DHT22;2583;50.946;6.954;2023-02-28T01:24:15;1.80;1.00
5130;DHT22;2583;50.946;6.954;2023-02-28T01:26:42;1.80;1.00
5130;DHT22;2583;50.946;6.954;2023-02-28T01:29:09;1.70;1.00
5130;DHT22;2583;50.946;6.954;2023-02-28T01:31:36;1.70;1.00
5130;DHT22;2583;50.946;6.954;2023-02-28T01:34:03;1.70;1.00
5130;DHT22;2583;50.946;6.954;2023-02-28T01:36:30;1.70;1.00
5130;DHT22;2583;50.946;6.954;2023-02-28T01:38:56;1.70;1.00
5130;DHT22;2583;50.946;6.954;2023-02-28T01:41:26;1.70;1.00
5130;DHT22;2583;50.946;6.954;2023-02-28T01:46:31;1.60;1.00
5130;DHT22;2583;50.946;6.954;2023-02-28T01:49:09;1.60;1.00
5130;DHT22;2583;50.946;6.954;2023-02-28T01:51:42;1.60;1.00
5130;DHT22;2583;50.946;6.954;2023-02-28T01:54:16;1.60;1.00
5130;DHT22;2583;50.946;6.954;2023-02-28T01:56:49;1.60;1.00
5130;DHT22;2583;50.946;6.954;2023-02-28T01:59:42;1.60;1.00
5130;DHT22;2583;50.946;6.954;2023-02-28T02:02:13;1.60;1.00
5130;DHT22;2583;50.946;6.954;2023-02-28T02:04:52;1.50;1.00
5130;DHT22;2583;50.946;6.954;2023-02-28T02:07:20;1.50;1.00
5130;DHT22;2583;50.946;6.954;2023-02-28T02:09:47;1.50;1.00
5130;DHT22;2583;50.946;6.954;2023-02-28T02:12:31;1.50;1.00
5130;DHT22;2583;50.946;6.954;2023-02-28T02:15:15;1.50;1.00
5130;DHT22;2583;50.946;6.954;2023-02-28T02:17:47;1.50;1.00
5130;DHT22;2583;50.946;6.954;2023-02-28T02:23:07;1.50;1.00
5130;DHT22;2583;50.946;6.954;2023-02-28T02:39:50;1.50;1.00
5130;DHT22;2583;50.946;6.954;2023-02-28T02:42:31;1.50;1.00
5130;DHT22;2583;50.946;6.954;2023-02-28T02:45:14;1.50;1.00
5130;DHT22;2583;50.946;6.954;2023-02-28T02:47:43;1.50;1.00
5130;DHT22;2583;50.946;6.954;2023-02-28T02:50:17;1.50;1.00
5130;DHT22;2583;50.946;6.954;2023-02-28T02:52:51;1.50;1.00
5130;DHT22;2583;50.946;6.954;2023-02-28T02:55:20;1.50;1.00
5130;DHT22;2583;50.946;6.954;2023-02-28T03:00:22;1.40;1.00
5130;DHT22;2583;50.946;6.954;2023-02-28T03:02:52;1.40;1.00
5130;DHT22;2583;50.946;6.954;2023-02-28T03:05:26;1.50;1.00
5130;DHT22;2583;50.946;6.954;2023-02-28T03:07:53;1.50;1.00
5130;DHT22;2583;50.946;6.954;2023-02-28T03:10:41;1.40;1.00
5130;DHT22;2583;50.946;6.954;2023-02-28T03:13:58;1.40;1.00
5130;DHT22;2583;50.946;6.954;2023-02-28T03:18:49;1.50;1.00
5130;DHT22;2583;50.946;6.954;2023-02-28T03:21:31;1.50;1.00
5130;DHT22;2583;50.946;6.954;2023-02-28T03:24:10;1.40;1.00
5130;DHT22;2583;50.946;6.954;2023-02-28T03:26:44;1.40;1.00
5130;DHT22;2583;50.946;6.954;2023-02-28T03:29:28;1.40;1.00
5130;DHT22;2583;50.946;6.954;2023-02-28T03:32:04;1.40;1.00
5130;DHT22;2583;50.946;6.954;2023-02-28T03:34:36;1.30;1.00
5130;DHT22;2583;50.946;6.954;2023-02-28T03:37:11;1.40;1.00
5130;DHT22;2583;50.946;6.954;2023-02-28T03:39:44;1.40;1.00
5130;DHT22;2583;50.946;6.954;2023-02-28T03:42:18;1.40;1.00
5130;DHT22;2583;50.946;6.954;2023-02-28T03:45:10;1.40;1.00
5130;DHT22;2583;50.946;6.954;2023-02-28T03:47:43;1.40;1.00
5130;DHT22;2583;50.946;6.954;2023-02-28T03:50:22;1.40;1.00
5130;DHT22;2583;50.946;6.954;2023-02-28T03:52:56;1.40;1.00
5130;DHT22;2583;50.946;6.954;2023-02-28T03:55:35;1.40;1.00
5130;DHT22;2583;50.946;6.954;2023-02-28T03:58:16;1.40;1.00
5130;DHT22;2583;50.946;6.954;2023-02-28T04:00:49;1.30;1.00
5130;DHT22;2583;50.946;6.954;2023-02-28T04:03:18;1.30;1.00
5130;DHT22;2583;50.946;6.954;2023-02-28T04:05:53;1.30;1.00
5130;DHT22;2583;50.946;6.954;2023-02-28T04:08:21;1.20;1.00
5130;DHT22;2583;50.946;6.954;2023-02-28T04:11:01;1.20;1.00
5130;DHT22;2583;50.946;6.954;2023-02-28T04:13:30;1.10;1.00
5130;DHT22;2583;50.946;6.954;2023-02-28T04:15:57;1.10;1.00
5130;DHT22;2583;50.946;6.954;2023-02-28T04:18:24;1.10;1.00
5130;DHT22;2583;50.946;6.954;2023-02-28T04:20:51;1.10;1.00
5130;DHT22;2583;50.946;6.954;2023-02-28T04:23:17;1.00;1.00
5130;DHT22;2583;50.946;6.954;2023-02-28T04:25:44;1.00;1.00
5130;DHT22;2583;50.946;6.954;2023-02-28T04:28:11;1.00;1.00
5130;DHT22;2583;50.946;6.954;2023-02-28T04:30:38;1.00;1.00
5130;DHT22;2583;50.946;6.954;2023-02-28T04:33:05;1.00;1.00
5130;DHT22;2583;50.946;6.954;2023-02-28T04:35:32;1.00;1.00
5130;DHT22;2583;50.946;6.954;2023-02-28T04:37:59;0.90;1.00
5130;DHT22;2583;50.946;6.954;2023-02-28T04:40:26;0.90;1.00
5130;DHT22;2583;50.946;6.954;2023-02-28T04:42:52;0.90;1.00
5130;DHT22;2583;50.946;6.954;2023-02-28T04:45:19;0.90;1.00
5130;DHT22;2583;50.946;6.954;2023-02-28T04:47:46;0.90;1.00
5130;DHT22;2583;50.946;6.954;2023-02-28T04:50:13;0.90;1.00
5130;DHT22;2583;50.946;6.954;2023-02-28T04:52:39;0.90;1.00
5130;DHT22;2583;50.946;6.954;2023-02-28T04:55:06;0.90;1.00
5130;DHT22;2583;50.946;6.954;2023-02-28T04:57:33;0.90;1.00
5130;DHT22;2583;50.946;6.954;2023-02-28T05:00:00;0.90;1.00
5130;DHT22;2583;50.946;6.954;2023-02-28T05:02:27;0.90;1.00
5130;DHT22;2583;50.946;6.954;2023-02-28T05:04:54;0.90;1.00
5130;DHT22;2583;50.946;6.954;2023-02-28T05:07:20;0.80;1.00
5130;DHT22;2583;50.946;6.954;2023-02-28T05:09:47;0.80;1.00
5130;DHT22;2583;50.946;6.954;2023-02-28T05:12:14;0.70;1.00
5130;DHT22;2583;50.946;6.954;2023-02-28T05:14:40;0.70;1.00
5130;DHT22;2583;50.946;6.954;2023-02-28T05:17:08;0.70;1.00
5130;DHT22;2583;50.946;6.954;2023-02-28T05:19:35;0.70;1.00
5130;DHT22;2583;50.946;6.954;2023-02-28T05:22:02;0.70;1.00
5130;DHT22;2583;50.946;6.954;2023-02-28T05:24:29;0.70;1.00
5130;DHT22;2583;50.946;6.954;2023-02-28T05:26:55;0.70;1.00
5130;DHT22;2583;50.946;6.954;2023-02-28T05:29:22;0.70;1.00
5130;DHT22;2583;50.946;6.954;2023-02-28T05:31:49;0.70;1.00
5130;DHT22;2583;50.946;6.954;2023-02-28T05:34:16;0.60;1.00
5130;DHT22;2583;50.946;6.954;2023-02-28T05:36:43;0.60;1.00
5130;DHT22;2583;50.946;6.954;2023-02-28T05:39:11;0.50;1.00
5130;DHT22;2583;50.946;6.954;2023-02-28T05:41:42;0.50;1.00
5130;DHT22;2583;50.946;6.954;2023-02-28T05:44:10;0.50;1.00
5130;DHT22;2583;50.946;6.954;2023-02-28T05:46:37;0.50;1.00
5130;DHT22;2583;50.946;6.954;2023-02-28T05:49:04;0.50;1.00
5130;DHT22;2583;50.946;6.954;2023-02-28T05:51:31;0.50;1.00
5130;DHT22;2583;50.946;6.954;2023-02-28T05:53:59;0.60;1.00
5130;DHT22;2583;50.946;6.954;2023-02-28T05:56:27;0.60;1.00
5130;DHT22;2583;50.946;6.954;2023-02-28T05:58:54;0.60;1.00
5130;DHT22;2583;50.946;6.954;2023-02-28T06:03:49;0.70;1.00
5130;DHT22;2583;50.946;6.954;2023-02-28T06:06:16;0.70;1.00
5130;DHT22;2583;50.946;6.954;2023-02-28T06:08:43;0.70;1.00
5130;DHT22;2583;50.946;6.954;2023-02-28T06:11:11;0.70;1.00
5130;DHT22;2583;50.946;6.954;2023-02-28T06:13:38;0.70;1.00
5130;DHT22;2583;50.946;6.954;2023-02-28T06:16:05;0.80;1.00
5130;DHT22;2583;50.946;6.954;2023-02-28T06:18:32;0.80;1.00
5130;DHT22;2583;50.946;6.954;2023-02-28T06:20:59;0.80;1.00
5130;DHT22;2583;50.946;6.954;2023-02-28T06:23:25;0.90;1.00
5130;DHT22;2583;50.946;6.954;2023-02-28T06:25:52;0.90;1.00
5130;DHT22;2583;50.946;6.954;2023-02-28T06:28:19;0.90;1.00
5130;DHT22;2583;50.946;6.954;2023-02-28T06:30:46;0.90;1.00
5130;DHT22;2583;50.946;6.954;2023-02-28T06:33:13;0.90;1.00
5130;DHT22;2583;50.946;6.954;2023-02-28T06:35:42;0.90;1.00
5130;DHT22;2583;50.946;6.954;2023-02-28T06:38:09;0.90;1.00
5130;DHT22;2583;50.946;6.954;2023-02-28T06:40:37;0.90;1.00
5130;DHT22;2583;50.946;6.954;2023-02-28T06:43:04;0.90;1.00
5130;DHT22;2583;50.946;6.954;2023-02-28T06:45:31;0.90;1.00
5130;DHT22;2583;50.946;6.954;2023-02-28T06:47:57;0.90;1.00
5130;DHT22;2583;50.946;6.954;2023-02-28T06:50:25;0.90;1.00
5130;DHT22;2583;50.946;6.954;2023-02-28T06:52:51;0.90;1.00
5130;DHT22;2583;50.946;6.954;2023-02-28T06:55:20;0.80;1.00
5130;DHT22;2583;50.946;6.954;2023-02-28T06:57:47;0.80;1.00
5130;DHT22;2583;50.946;6.954;2023-02-28T07:00:14;0.80;1.00
5130;DHT22;2583;50.946;6.954;2023-02-28T07:02:41;0.80;1.00
5130;DHT22;2583;50.946;6.954;2023-02-28T07:05:08;0.80;1.00
5130;DHT22;2583;50.946;6.954;2023-02-28T07:07:35;0.80;1.00
5130;DHT22;2583;50.946;6.954;2023-02-28T07:10:04;0.80;1.00
5130;DHT22;2583;50.946;6.954;2023-02-28T07:12:32;0.90;1.00
5130;DHT22;2583;50.946;6.954;2023-02-28T07:14:59;0.90;1.00
5130;DHT22;2583;50.946;6.954;2023-02-28T07:17:26;0.90;1.00
5130;DHT22;2583;50.946;6.954;2023-02-28T07:19:52;0.90;1.00
5130;DHT22;2583;50.946;6.954;2023-02-28T07:22:19;0.90;1.00
5130;DHT22;2583;50.946;6.954;2023-02-28T07:24:46;0.90;1.00
5130;DHT22;2583;50.946;6.954;2023-02-28T07:27:13;1.00;1.00
5130;DHT22;2583;50.946;6.954;2023-02-28T07:29:50;1.00;1.00
5130;DHT22;2583;50.946;6.954;2023-02-28T07:32:16;1.00;1.00
5130;DHT22;2583;50.946;6.954;2023-02-28T07:34:44;1.10;1.00
5130;DHT22;2583;50.946;6.954;2023-02-28T07:37:11;1.10;1.00
5130;DHT22;2583;50.946;6.954;2023-02-28T07:39:38;1.20;1.00
5130;DHT22;2583;50.946;6.954;2023-02-28T07:42:05;1.20;1.00
5130;DHT22;2583;50.946;6.954;2023-02-28T07:44:32;1.30;1.00
5130;DHT22;2583;50.946;6.954;2023-02-28T07:46:59;1.40;1.00
5130;DHT22;2583;50.946;6.954;2023-02-28T07:49:26;1.40;1.00
5130;DHT22;2583;50.946;6.954;2023-02-28T07:51:53;1.40;1.00
5130;DHT22;2583;50.946;6.954;2023-02-28T07:54:19;1.50;1.00
5130;DHT22;2583;50.946;6.954;2023-02-28T07:56:46;1.60;1.00
5130;DHT22;2583;50.946;6.954;2023-02-28T07:59:13;1.70;1.00
5130;DHT22;2583;50.946;6.954;2023-02-28T08:01:40;1.70;1.00
5130;DHT22;2583;50.946;6.954;2023-02-28T08:04:06;1.70;1.00
5130;DHT22;2583;50.946;6.954;2023-02-28T08:06:33;1.80;1.00
5130;DHT22;2583;50.946;6.954;2023-02-28T08:09:00;1.80;1.00
5130;DHT22;2583;50.946;6.954;2023-02-28T08:11:27;1.90;1.00
5130;DHT22;2583;50.946;6.954;2023-02-28T08:13:54;2.00;1.00
5130;DHT22;2583;50.946;6.954;2023-02-28T08:16:21;2.00;1.00
5130;DHT22;2583;50.946;6.954;2023-02-28T08:18:50;2.10;1.00
5130;DHT22;2583;50.946;6.954;2023-02-28T08:21:17;2.20;1.00
5130;DHT22;2583;50.946;6.954;2023-02-28T08:23:47;2.20;1.00
5130;DHT22;2583;50.946;6.954;2023-02-28T08:26:15;2.30;1.00
5130;DHT22;2583;50.946;6.954;2023-02-28T08:28:42;2.40;1.00
5130;DHT22;2583;50.946;6.954;2023-02-28T08:31:11;2.50;1.00
5130;DHT22;2583;50.946;6.954;2023-02-28T08:33:38;2.60;1.00
5130;DHT22;2583;50.946;6.954;2023-02-28T08:36:06;2.70;1.00
5130;DHT22;2583;50.946;6.954;2023-02-28T08:38:34;2.80;1.00
5130;DHT22;2583;50.946;6.954;2023-02-28T08:41:04;2.90;1.00
5130;DHT22;2583;50.946;6.954;2023-02-28T08:43:34;2.90;1.00
5130;DHT22;2583;50.946;6.954;2023-02-28T08:46:01;2.90;1.00
5130;DHT22;2583;50.946;6.954;2023-02-28T08:48:29;2.90;1.00
5130;DHT22;2583;50.946;6.954;2023-02-28T08:51:00;2.90;1.00
5130;DHT22;2583;50.946;6.954;2023-02-28T08:53:34;3.00;1.00
5130;DHT22;2583;50.946;6.954;2023-02-28T08:56:04;3.10;1.00
5130;DHT22;2583;50.946;6.954;2023-02-28T08:58:31;3.20;1.00
5130;DHT22;2583;50.946;6.954;2023-02-28T09:00:58;3.30;1.00
5130;DHT22;2583;50.946;6.954;2023-02-28T09:03:26;3.40;1.00
5130;DHT22;2583;50.946;6.954;2023-02-28T09:05:58;3.50;1.00
5130;DHT22;2583;50.946;6.954;2023-02-28T09:08:27;3.50;1.00
5130;DHT22;2583;50.946;6.954;2023-02-28T09:10:54;3.60;1.00
5130;DHT22;2583;50.946;6.954;2023-02-28T09:13:24;3.70;1.00
5130;DHT22;2583;50.946;6.954;2023-02-28T09:15:51;3.80;1.00
5130;DHT22;2583;50.946;6.954;2023-02-28T09:18:18;3.80;1.00
5130;DHT22;2583;50.946;6.954;2023-02-28T09:20:45;3.80;1.00
5130;DHT22;2583;50.946;6.954;2023-02-28T09:23:12;3.80;1.00
5130;DHT22;2583;50.946;6.954;2023-02-28T09:25:49;3.90;1.00
5130;DHT22;2583;50.946;6.954;2023-02-28T09:28:17;4.00;1.00
5130;DHT22;2583;50.946;6.954;2023-02-28T09:30:46;4.10;1.00
5130;DHT22;2583;50.946;6.954;2023-02-28T09:33:14;4.20;1.00
5130;DHT22;2583;50.946;6.954;2023-02-28T09:35:42;4.20;1.00
5130;DHT22;2583;50.946;6.954;2023-02-28T09:38:10;4.10;1.00
5130;DHT22;2583;50.946;6.954;2023-02-28T09:40:49;4.10;1.00
5130;DHT22;2583;50.946;6.954;2023-02-28T09:43:18;4.00;1.00
5130;DHT22;2583;50.946;6.954;2023-02-28T09:46:08;4.20;1.00
5130;DHT22;2583;50.946;6.954;2023-02-28T09:48:41;4.40;1.00
5130;DHT22;2583;50.946;6.954;2023-02-28T09:53:49;4.60;1.00
5130;DHT22;2583;50.946;6.954;2023-02-28T09:56:40;4.60;1.00
5130;DHT22;2583;50.946;6.954;2023-02-28T09:59:21;4.60;1.00
5130;DHT22;2583;50.946;6.954;2023-02-28T10:05:17;4.90;1.00
5130;DHT22;2583;50.946;6.954;2023-02-28T10:10:48;5.00;1.00
5130;DHT22;2583;50.946;6.954;2023-02-28T10:16:03;4.80;1.00
5130;DHT22;2583;50.946;6.954;2023-02-28T10:21:42;4.80;1.00
5130;DHT22;2583;50.946;6.954;2023-02-28T10:24:23;4.90;1.00
5130;DHT22;2583;50.946;6.954;2023-02-28T10:26:59;5.00;1.00
5130;DHT22;2583;50.946;6.954;2023-02-28T10:29:27;5.10;1.00
5130;DHT22;2583;50.946;6.954;2023-02-28T10:31:56;5.10;1.00
5130;DHT22;2583;50.946;6.954;2023-02-28T10:34:24;5.10;1.00
5130;DHT22;2583;50.946;6.954;2023-02-28T10:36:51;5.20;1.00
5130;DHT22;2583;50.946;6.954;2023-02-28T10:39:41;5.30;1.00
5130;DHT22;2583;50.946;6.954;2023-02-28T10:42:26;5.20;1.00
5130;DHT22;2583;50.946;6.954;2023-02-28T10:48:03;5.40;1.00
5130;DHT22;2583;50.946;6.954;2023-02-28T10:58:56;5.60;1.00
5130;DHT22;2583;50.946;6.954;2023-02-28T11:03:57;5.50;1.00
5130;DHT22;2583;50.946;6.954;2023-02-28T11:06:33;5.70;1.00
5130;DHT22;2583;50.946;6.954;2023-02-28T11:09:04;5.80;1.00
5130;DHT22;2583;50.946;6.954;2023-02-28T11:11:43;6.00;1.00
5130;DHT22;2583;50.946;6.954;2023-02-28T11:14:23;5.90;1.00
5130;DHT22;2583;50.946;6.954;2023-02-28T11:16:51;5.90;1.00
5130;DHT22;2583;50.946;6.954;2023-02-28T11:19:34;5.80;1.00
5130;DHT22;2583;50.946;6.954;2023-02-28T11:22:05;6.00;1.00
5130;DHT22;2583;50.946;6.954;2023-02-28T11:24:37;6.10;1.00
5130;DHT22;2583;50.946;6.954;2023-02-28T11:30:30;6.40;1.00
5130;DHT22;2583;50.946;6.954;2023-02-28T11:32:57;5.90;1.00
5130;DHT22;2583;50.946;6.954;2023-02-28T11:35:28;6.10;1.00
5130;DHT22;2583;50.946;6.954;2023-02-28T11:37:57;6.20;1.00
5130;DHT22;2583;50.946;6.954;2023-02-28T11:44:02;6.30;1.00
5130;DHT22;2583;50.946;6.954;2023-02-28T11:55:14;6.40;1.00
5130;DHT22;2583;50.946;6.954;2023-02-28T12:06:47;6.40;1.00
5130;DHT22;2583;50.946;6.954;2023-02-28T12:09:40;6.50;1.00
5130;DHT22;2583;50.946;6.954;2023-02-28T12:26:41;7.40;1.00
5130;DHT22;2583;50.946;6.954;2023-02-28T12:29:30;7.30;1.00
5130;DHT22;2583;50.946;6.954;2023-02-28T12:32:04;7.20;1.00
5130;DHT22;2583;50.946;6.954;2023-02-28T12:34:37;7.10;1.00
5130;DHT22;2583;50.946;6.954;2023-02-28T12:37:09;7.40;1.00
5130;DHT22;2583;50.946;6.954;2023-02-28T12:39:45;7.60;1.00
5130;DHT22;2583;50.946;6.954;2023-02-28T12:42:27;7.60;1.00
5130;DHT22;2583;50.946;6.954;2023-02-28T12:45:05;7.60;1.00
5130;DHT22;2583;50.946;6.954;2023-02-28T12:47:38;7.30;1.00
5130;DHT22;2583;50.946;6.954;2023-02-28T12:50:08;7.40;1.00
5130;DHT22;2583;50.946;6.954;2023-02-28T12:58:01;7.20;1.00
5130;DHT22;2583;50.946;6.954;2023-02-28T13:00:36;7.40;1.00
5130;DHT22;2583;50.946;6.954;2023-02-28T13:03:31;7.60;1.00
5130;DHT22;2583;50.946;6.954;2023-02-28T13:09:14;7.90;1.00
5130;DHT22;2583;50.946;6.954;2023-02-28T13:11:52;7.90;1.00
5130;DHT22;2583;50.946;6.954;2023-02-28T13:14:35;8.10;1.00
5130;DHT22;2583;50.946;6.954;2023-02-28T13:19:55;8.30;1.00
5130;DHT22;2583;50.946;6.954;2023-02-28T13:22:41;8.30;1.00
5130;DHT22;2583;50.946;6.954;2023-02-28T13:28:10;9.00;1.00
5130;DHT22;2583;50.946;6.954;2023-02-28T13:33:34;8.90;1.00
5130;DHT22;2583;50.946;6.954;2023-02-28T13:38:42;9.30;1.00
5130;DHT22;2583;50.946;6.954;2023-02-28T13:44:23;9.60;1.00
5130;DHT22;2583;50.946;6.954;2023-02-28T13:52:15;10.50;1.00
5130;DHT22;2583;50.946;6.954;2023-02-28T13:55:00;10.50;1.00
5130;DHT22;2583;50.946;6.954;2023-02-28T14:11:41;11.20;1.00
5130;DHT22;2583;50.946;6.954;2023-02-28T14:14:52;11.50;1.00
5130;DHT22;2583;50.946;6.954;2023-02-28T14:16:57;11.50;1.00
5130;DHT22;2583;50.946;6.954;2023-02-28T14:19:27;11.40;1.00
5130;DHT22;2583;50.946;6.954;2023-02-28T14:31:03;12.40;1.00
5130;DHT22;2583;50.946;6.954;2023-02-28T14:33:59;12.40;1.00
5130;DHT22;2583;50.946;6.954;2023-02-28T14:36:37;12.40;1.00
5130;DHT22;2583;50.946;6.954;2023-02-28T14:39:19;12.70;1.00
5130;DHT22;2583;50.946;6.954;2023-02-28T14:41:47;12.80;1.00
5130;DHT22;2583;50.946;6.954;2023-02-28T14:46:44;11.30;1.00
5130;DHT22;2583;50.946;6.954;2023-02-28T14:49:36;10.20;1.00
5130;DHT22;2583;50.946;6.954;2023-02-28T14:52:20;9.50;1.00
5130;DHT22;2583;50.946;6.954;2023-02-28T14:54:55;8.70;1.00
5130;DHT22;2583;50.946;6.954;2023-02-28T14:57:29;8.30;1.00
5130;DHT22;2583;50.946;6.954;2023-02-28T15:02:34;8.00;1.00
5130;DHT22;2583;50.946;6.954;2023-02-28T15:05:31;7.80;1.00
5130;DHT22;2583;50.946;6.954;2023-02-28T15:10:45;7.60;1.00
5130;DHT22;2583;50.946;6.954;2023-02-28T15:13:14;7.50;1.00
5130;DHT22;2583;50.946;6.954;2023-02-28T15:15:59;7.30;1.00
5130;DHT22;2583;50.946;6.954;2023-02-28T15:21:18;7.20;1.00
5130;DHT22;2583;50.946;6.954;2023-02-28T15:23:57;7.20;1.00
5130;DHT22;2583;50.946;6.954;2023-02-28T15:26:38;7.20;1.00
5130;DHT22;2583;50.946;6.954;2023-02-28T15:29:11;7.10;1.00
5130;DHT22;2583;50.946;6.954;2023-02-28T15:31:50;7.10;1.00
5130;DHT22;2583;50.946;6.954;2023-02-28T15:34:38;7.00;1.00
5130;DHT22;2583;50.946;6.954;2023-02-28T15:37:41;7.00;1.00
5130;DHT22;2583;50.946;6.954;2023-02-28T15:42:42;7.10;1.00
5130;DHT22;2583;50.946;6.954;2023-02-28T15:48:24;7.10;1.00
5130;DHT22;2583;50.946;6.954;2023-02-28T15:50:55;7.10;1.00
5130;DHT22;2583;50.946;6.954;2023-02-28T15:53:26;7.10;1.00
5130;DHT22;2583;50.946;6.954;2023-02-28T15:56:00;7.10;1.00
5130;DHT22;2583;50.946;6.954;2023-02-28T15:58:28;7.10;1.00
5130;DHT22;2583;50.946;6.954;2023-02-28T16:01:47;7.00;1.00
5130;DHT22;2583;50.946;6.954;2023-02-28T16:04:19;7.00;1.00
5130;DHT22;2583;50.946;6.954;2023-02-28T16:07:01;7.00;1.00
5130;DHT22;2583;50.946;6.954;2023-02-28T16:09:28;7.00;1.00
5130;DHT22;2583;50.946;6.954;2023-02-28T16:12:01;6.90;1.00
5130;DHT22;2583;50.946;6.954;2023-02-28T16:14:30;6.80;1.00
5130;DHT22;2583;50.946;6.954;2023-02-28T16:17:07;6.80;1.00
5130;DHT22;2583;50.946;6.954;2023-02-28T16:19:38;6.80;1.00
5130;DHT22;2583;50.946;6.954;2023-02-28T16:22:05;6.80;1.00
5130;DHT22;2583;50.946;6.954;2023-02-28T16:24:32;6.70;1.00
5130;DHT22;2583;50.946;6.954;2023-02-28T16:26:59;6.70;1.00
5130;DHT22;2583;50.946;6.954;2023-02-28T16:29:31;6.70;1.00
5130;DHT22;2583;50.946;6.954;2023-02-28T16:31:59;6.70;1.00
5130;DHT22;2583;50.946;6.954;2023-02-28T16:34:27;6.70;1.00
5130;DHT22;2583;50.946;6.954;2023-02-28T16:36:54;6.70;1.00
5130;DHT22;2583;50.946;6.954;2023-02-28T16:39:21;6.70;1.00
5130;DHT22;2583;50.946;6.954;2023-02-28T16:41:49;6.60;1.00
5130;DHT22;2583;50.946;6.954;2023-02-28T16:44:32;6.60;1.00
5130;DHT22;2583;50.946;6.954;2023-02-28T16:47:01;6.60;1.00
5130;DHT22;2583;50.946;6.954;2023-02-28T16:49:29;6.60;1.00
5130;DHT22;2583;50.946;6.954;2023-02-28T16:51:56;6.60;1.00
5130;DHT22;2583;50.946;6.954;2023-02-28T16:54:23;6.50;1.00
5130;DHT22;2583;50.946;6.954;2023-02-28T16:56:50;6.50;1.00
5130;DHT22;2583;50.946;6.954;2023-02-28T16:59:21;6.50;1.00
5130;DHT22;2583;50.946;6.954;2023-02-28T17:01:50;6.50;1.00
5130;DHT22;2583;50.946;6.954;2023-02-28T17:04:18;6.50;1.00
5130;DHT22;2583;50.946;6.954;2023-02-28T17:06:44;6.50;1.00
5130;DHT22;2583;50.946;6.954;2023-02-28T17:09:21;6.40;1.00
5130;DHT22;2583;50.946;6.954;2023-02-28T17:11:56;6.40;1.00
5130;DHT22;2583;50.946;6.954;2023-02-28T17:14:23;6.30;1.00
5130;DHT22;2583;50.946;6.954;2023-02-28T17:16:50;6.20;1.00
5130;DHT22;2583;50.946;6.954;2023-02-28T17:19:17;6.20;1.00
5130;DHT22;2583;50.946;6.954;2023-02-28T17:21:44;6.30;1.00
5130;DHT22;2583;50.946;6.954;2023-02-28T17:24:11;6.20;1.00
5130;DHT22;2583;50.946;6.954;2023-02-28T17:26:44;6.10;1.00
5130;DHT22;2583;50.946;6.954;2023-02-28T17:29:18;6.10;1.00
5130;DHT22;2583;50.946;6.954;2023-02-28T17:31:46;6.10;1.00
5130;DHT22;2583;50.946;6.954;2023-02-28T17:34:13;6.00;1.00
5130;DHT22;2583;50.946;6.954;2023-02-28T17:36:45;5.90;1.00
5130;DHT22;2583;50.946;6.954;2023-02-28T17:39:14;6.00;1.00
5130;DHT22;2583;50.946;6.954;2023-02-28T17:41:41;5.90;1.00
5130;DHT22;2583;50.946;6.954;2023-02-28T17:44:08;5.90;1.00
5130;DHT22;2583;50.946;6.954;2023-02-28T17:46:36;5.80;1.00
5130;DHT22;2583;50.946;6.954;2023-02-28T17:49:03;5.80;1.00
5130;DHT22;2583;50.946;6.954;2023-02-28T17:51:30;5.80;1.00
5130;DHT22;2583;50.946;6.954;2023-02-28T17:53:57;5.70;1.00
5130;DHT22;2583;50.946;6.954;2023-02-28T17:56:25;5.70;1.00
5130;DHT22;2583;50.946;6.954;2023-02-28T17:58:53;5.80;1.00
5130;DHT22;2583;50.946;6.954;2023-02-28T18:01:22;5.70;1.00
5130;DHT22;2583;50.946;6.954;2023-02-28T18:03:49;5.70;1.00
5130;DHT22;2583;50.946;6.954;2023-02-28T18:06:21;5.60;1.00
5130;DHT22;2583;50.946;6.954;2023-02-28T18:08:49;5.60;1.00
5130;DHT22;2583;50.946;6.954;2023-02-28T18:11:19;5.50;1.00
5130;DHT22;2583;50.946;6.954;2023-02-28T18:13:48;5.40;1.00
5130;DHT22;2583;50.946;6.954;2023-02-28T18:16:17;5.40;1.00
5130;DHT22;2583;50.946;6.954;2023-02-28T18:18:44;5.40;1.00
5130;DHT22;2583;50.946;6.954;2023-02-28T18:21:12;5.30;1.00
5130;DHT22;2583;50.946;6.954;2023-02-28T18:23:42;5.20;1.00
5130;DHT22;2583;50.946;6.954;2023-02-28T18:26:17;5.10;1.00
5130;DHT22;2583;50.946;6.954;2023-02-28T18:28:45;5.10;1.00
5130;DHT22;2583;50.946;6.954;2023-02-28T18:31:17;5.00;1.00
5130;DHT22;2583;50.946;6.954;2023-02-28T18:33:48;5.00;1.00
5130;DHT22;2583;50.946;6.954;2023-02-28T18:36:15;4.90;1.00
5130;DHT22;2583;50.946;6.954;2023-02-28T18:38:42;4.90;1.00
5130;DHT22;2583;50.946;6.954;2023-02-28T18:41:09;4.90;1.00
5130;DHT22;2583;50.946;6.954;2023-02-28T18:43:37;4.90;1.00
5130;DHT22;2583;50.946;6.954;2023-02-28T18:46:10;4.80;1.00
5130;DHT22;2583;50.946;6.954;2023-02-28T18:48:37;4.70;1.00
5130;DHT22;2583;50.946;6.954;2023-02-28T18:51:17;4.70;1.00
5130;DHT22;2583;50.946;6.954;2023-02-28T18:53:45;4.70;1.00
5130;DHT22;2583;50.946;6.954;2023-02-28T18:56:19;4.70;1.00
5130;DHT22;2583;50.946;6.954;2023-02-28T18:58:46;4.60;1.00
5130;DHT22;2583;50.946;6.954;2023-02-28T19:01:24;4.60;1.00
5130;DHT22;2583;50.946;6.954;2023-02-28T19:03:58;4.60;1.00
5130;DHT22;2583;50.946;6.954;2023-02-28T19:06:26;4.50;1.00
5130;DHT22;2583;50.946;6.954;2023-02-28T19:08:56;4.50;1.00
5130;DHT22;2583;50.946;6.954;2023-02-28T19:11:24;4.50;1.00
5130;DHT22;2583;50.946;6.954;2023-02-28T19:13:51;4.40;1.00
5130;DHT22;2583;50.946;6.954;2023-02-28T19:16:19;4.40;1.00
5130;DHT22;2583;50.946;6.954;2023-02-28T19:18:46;4.40;1.00
5130;DHT22;2583;50.946;6.954;2023-02-28T19:21:15;4.40;1.00
5130;DHT22;2583;50.946;6.954;2023-02-28T19:23:42;4.30;1.00
5130;DHT22;2583;50.946;6.954;2023-02-28T19:26:12;4.30;1.00
5130;DHT22;2583;50.946;6.954;2023-02-28T19:28:39;4.30;1.00
5130;DHT22;2583;50.946;6.954;2023-02-28T19:31:17;4.30;1.00
5130;DHT22;2583;50.946;6.954;2023-02-28T19:33:45;4.30;1.00
5130;DHT22;2583;50.946;6.954;2023-02-28T19:36:13;4.30;1.00
5130;DHT22;2583;50.946;6.954;2023-02-28T19:38:40;4.30;1.00
5130;DHT22;2583;50.946;6.954;2023-02-28T19:41:09;4.30;1.00